Salten — LMFM — position and weather

sailwx.info

Track history (hours):
 
Tides and Currents Weather Stations Pressure Air Temp Water Temp Dewpoint Dewpoint Depression Visibility Wind Speed Wind Dir Waves Ship Positions

Salten

Last reported at 2014-Oct-30 15:31 UTC. Time now 2014-Oct-31 04:06 UTC.
Position N 67°07' E 014°03'.

Length 41 m; draft 1.5 m.

Type: High speed craft. MMSI: 259387000.

Date/timePositionNaut miles runAvg speedWind from/ knotsBaromVisibWave heightAir tempDewpointWater temp
2014-Oct-30 15:31N 67°07' E 014°03'1212.7
2014-Oct-30 14:33N 67°17' E 014°22'0 0.0
2014-Oct-30 13:33N 67°17' E 014°22'0 0.0
2014-Oct-30 12:33N 67°17' E 014°22'0 0.0
2014-Oct-30 11:03N 67°17' E 014°22'0 0.0
2014-Oct-30 10:33N 67°17' E 014°22'0 0.0
2014-Oct-30 09:33N 67°17' E 014°22'8 7.9
2014-Oct-30 08:33N 67°24' E 014°31'2 0.1
2014-Oct-29 16:33N 67°25' E 014°26'8 7.9
2014-Oct-29 15:33N 67°17' E 014°22'0 0.0
2014-Oct-29 14:33N 67°17' E 014°22'0 0.0
2014-Oct-29 13:33N 67°17' E 014°22'0 0.0
2014-Oct-29 12:33N 67°17' E 014°22'0 0.0
2014-Oct-29 11:33N 67°17' E 014°22'8 8.0
2014-Oct-29 10:33N 67°12' E 014°07'17 0.9
2014-Oct-28 16:07N 66°60' E 013°37'1221.7
2014-Oct-28 15:33N 67°07' E 014°02'1313.1
2014-Oct-28 14:33N 67°17' E 014°24'1 0.6
2014-Oct-28 13:33N 67°17' E 014°22'0 0.0
2014-Oct-28 12:33N 67°17' E 014°22'0 0.0
2014-Oct-28 11:33N 67°17' E 014°22'0 0.0
2014-Oct-28 10:33N 67°17' E 014°22'0 0.0
2014-Oct-28 09:33N 67°17' E 014°22'1010.0
2014-Oct-28 08:33N 67°26' E 014°33'12 0.8
2014-Oct-27 17:06N 67°37' E 014°41'1426.2
2014-Oct-27 16:33N 67°24' E 014°26'7 7.3
2014-Oct-27 15:33N 67°17' E 014°22'1 0.5
2014-Oct-27 14:33N 67°17' E 014°24'1 0.5
2014-Oct-27 13:33N 67°17' E 014°22'0 0.0
2014-Oct-27 12:33N 67°17' E 014°22'0 0.0
2014-Oct-27 11:33N 67°17' E 014°22'0 0.0
2014-Oct-27 10:33N 67°17' E 014°22'0 0.0
2014-Oct-27 09:33N 67°17' E 014°22'20 1.5
2014-Oct-26 20:13N 67°36' E 014°42'2030.3
2014-Oct-26 19:33N 67°17' E 014°22'0 0.3
2014-Oct-26 18:33N 67°17' E 014°22'7 0.3
2014-Oct-25 15:33N 67°24' E 014°31'8 7.6
2014-Oct-25 14:33N 67°17' E 014°22'0 0.0
2014-Oct-25 13:33N 67°17' E 014°22'0 0.0
2014-Oct-25 12:33N 67°17' E 014°22'0 0.0
2014-Oct-25 11:33N 67°17' E 014°22'0 0.1
2014-Oct-25 10:33N 67°17' E 014°23'1211.7
2014-Oct-25 09:30N 67°07' E 014°03'1 0.0
2014-Oct-24 14:28N 67°08' E 014°01'1313.7
2014-Oct-24 13:33N 67°17' E 014°22'0 0.0
2014-Oct-24 12:33N 67°17' E 014°22'0 0.0
2014-Oct-24 11:33N 67°17' E 014°22'0 0.0
2014-Oct-24 10:33N 67°17' E 014°22'12 0.6
2014-Oct-23 14:32N 67°07' E 014°03'1313.1
2014-Oct-23 13:33N 67°17' E 014°24'1 0.6
2014-Oct-23 12:33N 67°17' E 014°22'0 0.0
2014-Oct-23 11:33N 67°17' E 014°22'0 0.0
2014-Oct-23 10:33N 67°17' E 014°22'6 6.4
2014-Oct-23 09:33N 67°13' E 014°10'8 0.4
2014-Oct-22 14:30N 67°06' E 013°58'1415.1
2014-Oct-22 13:33N 67°17' E 014°22'0 0.0
2014-Oct-22 12:33N 67°17' E 014°22'0 0.0
2014-Oct-22 11:33N 67°17' E 014°22'0 0.0
2014-Oct-22 10:33N 67°17' E 014°22'9 8.6
2014-Oct-22 09:32N 67°11' E 014°06'15 0.8
2014-Oct-21 15:06N 67°00' E 013°39'1220.1
2014-Oct-21 14:31N 67°07' E 014°03'1212.7
2014-Oct-21 13:33N 67°17' E 014°22'0 0.0
2014-Oct-21 12:33N 67°17' E 014°22'0 0.0
2014-Oct-21 11:33N 67°17' E 014°22'0 0.0
2014-Oct-21 10:33N 67°17' E 014°22'0 0.0
2014-Oct-21 09:33N 67°17' E 014°22'0 0.0
2014-Oct-21 08:33N 67°17' E 014°22'1211.9
2014-Oct-21 07:32N 67°28' E 014°37'5 0.3
2014-Oct-20 15:33N 67°23' E 014°31'  
Track history (hours):
 
Tides and Currents Weather Stations Pressure Air Temp Water Temp Dewpoint Dewpoint Depression Visibility Wind Speed Wind Dir Waves Ship Positions

Salten

Last reported at 2014-Oct-30 15:31 UTC. Time now 2014-Oct-31 04:06 UTC.
Position N 67°07' E 014°03'.

Length 41 m; draft 1.5 m.

Type: High speed craft. MMSI: 259387000.

Date/timePositionNaut miles runAvg speedWind from/ knotsBaromVisibWave heightAir tempDewpointWater temp
2014-Oct-30 15:31N 67°07' E 014°03'1212.7
2014-Oct-30 14:33N 67°17' E 014°22'0 0.0
2014-Oct-30 13:33N 67°17' E 014°22'0 0.0
2014-Oct-30 12:33N 67°17' E 014°22'0 0.0
2014-Oct-30 11:03N 67°17' E 014°22'0 0.0
2014-Oct-30 10:33N 67°17' E 014°22'0 0.0
2014-Oct-30 09:33N 67°17' E 014°22'8 7.9
2014-Oct-30 08:33N 67°24' E 014°31'2 0.1
2014-Oct-29 16:33N 67°25' E 014°26'8 7.9
2014-Oct-29 15:33N 67°17' E 014°22'0 0.0
2014-Oct-29 14:33N 67°17' E 014°22'0 0.0
2014-Oct-29 13:33N 67°17' E 014°22'0 0.0
2014-Oct-29 12:33N 67°17' E 014°22'0 0.0
2014-Oct-29 11:33N 67°17' E 014°22'8 8.0
2014-Oct-29 10:33N 67°12' E 014°07'17 0.9
2014-Oct-28 16:07N 66°60' E 013°37'1221.7
2014-Oct-28 15:33N 67°07' E 014°02'1313.1
2014-Oct-28 14:33N 67°17' E 014°24'1 0.6
2014-Oct-28 13:33N 67°17' E 014°22'0 0.0
2014-Oct-28 12:33N 67°17' E 014°22'0 0.0
2014-Oct-28 11:33N 67°17' E 014°22'0 0.0
2014-Oct-28 10:33N 67°17' E 014°22'0 0.0
2014-Oct-28 09:33N 67°17' E 014°22'1010.0
2014-Oct-28 08:33N 67°26' E 014°33'12 0.8
2014-Oct-27 17:06N 67°37' E 014°41'1426.2
2014-Oct-27 16:33N 67°24' E 014°26'7 7.3
2014-Oct-27 15:33N 67°17' E 014°22'1 0.5
2014-Oct-27 14:33N 67°17' E 014°24'1 0.5
2014-Oct-27 13:33N 67°17' E 014°22'0 0.0
2014-Oct-27 12:33N 67°17' E 014°22'0 0.0
2014-Oct-27 11:33N 67°17' E 014°22'0 0.0
2014-Oct-27 10:33N 67°17' E 014°22'0 0.0
2014-Oct-27 09:33N 67°17' E 014°22'20 1.5
2014-Oct-26 20:13N 67°36' E 014°42'2030.3
2014-Oct-26 19:33N 67°17' E 014°22'0 0.3
2014-Oct-26 18:33N 67°17' E 014°22'7 0.3
2014-Oct-25 15:33N 67°24' E 014°31'8 7.6
2014-Oct-25 14:33N 67°17' E 014°22'0 0.0
2014-Oct-25 13:33N 67°17' E 014°22'0 0.0
2014-Oct-25 12:33N 67°17' E 014°22'0 0.0
2014-Oct-25 11:33N 67°17' E 014°22'0 0.1
2014-Oct-25 10:33N 67°17' E 014°23'1211.7
2014-Oct-25 09:30N 67°07' E 014°03'1 0.0
2014-Oct-24 14:28N 67°08' E 014°01'1313.7
2014-Oct-24 13:33N 67°17' E 014°22'0 0.0
2014-Oct-24 12:33N 67°17' E 014°22'0 0.0
2014-Oct-24 11:33N 67°17' E 014°22'0 0.0
2014-Oct-24 10:33N 67°17' E 014°22'12 0.6
2014-Oct-23 14:32N 67°07' E 014°03'1313.1
2014-Oct-23 13:33N 67°17' E 014°24'1 0.6
2014-Oct-23 12:33N 67°17' E 014°22'0 0.0
2014-Oct-23 11:33N 67°17' E 014°22'0 0.0
2014-Oct-23 10:33N 67°17' E 014°22'6 6.4
2014-Oct-23 09:33N 67°13' E 014°10'8 0.4
2014-Oct-22 14:30N 67°06' E 013°58'1415.1
2014-Oct-22 13:33N 67°17' E 014°22'0 0.0
2014-Oct-22 12:33N 67°17' E 014°22'0 0.0
2014-Oct-22 11:33N 67°17' E 014°22'0 0.0
2014-Oct-22 10:33N 67°17' E 014°22'9 8.6
2014-Oct-22 09:32N 67°11' E 014°06'15 0.8
2014-Oct-21 15:06N 67°00' E 013°39'1220.1
2014-Oct-21 14:31N 67°07' E 014°03'1212.7
2014-Oct-21 13:33N 67°17' E 014°22'0 0.0
2014-Oct-21 12:33N 67°17' E 014°22'0 0.0
2014-Oct-21 11:33N 67°17' E 014°22'0 0.0
2014-Oct-21 10:33N 67°17' E 014°22'0 0.0
2014-Oct-21 09:33N 67°17' E 014°22'0 0.0
2014-Oct-21 08:33N 67°17' E 014°22'1211.9
2014-Oct-21 07:32N 67°28' E 014°37'5 0.3
2014-Oct-20 15:33N 67°23' E 014°31'  

Dump ship's entire track history